createdAt,value
2018-07-02T07:00:05.651Z,19.50
2018-07-02T07:27:04.051Z,20.60
2018-07-02T07:36:07.549Z,20.70
2018-07-02T07:38:36.060Z,20.80
2018-07-02T07:41:04.600Z,21.20
2018-07-02T07:43:33.192Z,21.30
2018-07-02T07:46:01.655Z,21.40
2018-07-02T07:48:30.207Z,21.50
2018-07-02T07:50:58.727Z,21.60
2018-07-02T07:53:27.312Z,21.70
2018-07-02T07:55:55.843Z,21.80
2018-07-02T07:58:24.436Z,21.80
2018-07-02T08:00:55.011Z,21.90
2018-07-02T08:03:23.517Z,22.00
2018-07-02T08:05:52.097Z,22.10
2018-07-02T08:08:20.656Z,22.20
2018-07-02T08:10:49.182Z,22.30
2018-07-02T08:14:47.979Z,22.40
2018-07-02T08:17:16.658Z,22.60
2018-07-02T08:19:45.297Z,22.70
2018-07-02T08:22:13.864Z,22.80
2018-07-02T08:27:45.708Z,22.90
2018-07-02T08:30:14.398Z,23.00
2018-07-02T08:32:44.436Z,23.00
2018-07-02T08:35:13.317Z,23.10
2018-07-02T08:37:42.636Z,23.30
2018-07-02T08:40:11.224Z,23.40
2018-07-02T08:42:39.777Z,23.50
2018-07-02T08:45:09.641Z,23.60
2018-07-02T08:47:38.281Z,23.60
2018-07-02T08:50:07.024Z,23.60
2018-07-02T08:52:35.488Z,23.80
2018-07-02T19:07:12.489Z,25.20
2018-07-02T19:09:42.031Z,25.00
2018-07-02T19:12:10.629Z,24.90
2018-07-02T19:14:39.191Z,24.80
2018-07-02T19:17:07.771Z,24.60
2018-07-02T19:19:36.358Z,24.50
2018-07-02T19:22:04.885Z,24.40
2018-07-02T19:24:33.458Z,24.30
2018-07-02T19:29:30.328Z,24.10
2018-07-02T19:31:58.851Z,24.00
2018-07-02T19:34:28.796Z,23.90
2018-07-02T19:39:28.025Z,23.70
2018-07-02T19:41:57.361Z,23.60
2018-07-02T19:44:26.047Z,23.50
2018-07-02T19:46:54.547Z,23.40
2018-07-02T19:49:23.715Z,23.40
2018-07-02T19:51:52.600Z,23.30
2018-07-02T19:54:23.208Z,23.20
2018-07-02T19:56:54.410Z,23.10
2018-07-02T19:59:29.001Z,23.00
2018-07-02T20:01:57.539Z,22.90
2018-07-02T20:04:26.003Z,22.80
2018-07-02T20:06:54.839Z,22.80
2018-07-02T20:09:24.332Z,22.70
2018-07-02T20:11:53.825Z,22.60
2018-07-02T20:14:22.636Z,22.60
2018-07-02T20:16:51.360Z,22.50
2018-07-02T20:19:19.893Z,22.40
2018-07-02T20:21:48.335Z,22.30
2018-07-02T20:24:16.863Z,22.30
2018-07-02T20:26:45.670Z,22.30
2018-07-02T20:29:14.192Z,22.20
2018-07-02T20:31:46.460Z,22.20
2018-07-02T20:34:15.439Z,22.10
2018-07-02T20:47:49.321Z,22.00
2018-07-02T20:50:17.930Z,21.70
2018-07-02T20:52:46.510Z,21.70
2018-07-02T20:55:15.149Z,21.70
2018-07-02T20:57:43.851Z,21.60
2018-07-02T21:00:12.591Z,21.50
2018-07-02T21:02:41.115Z,21.50
2018-07-02T21:05:09.749Z,21.40
2018-07-02T21:07:38.343Z,21.30
2018-07-02T21:10:09.139Z,21.20
2018-07-02T21:12:37.870Z,21.10
2018-07-02T21:15:06.799Z,21.10
2018-07-02T21:17:35.354Z,21.00
2018-07-02T21:20:04.330Z,21.00
2018-07-02T21:22:32.980Z,21.00
2018-07-02T21:25:01.643Z,21.00
2018-07-02T21:27:30.254Z,21.00
2018-07-02T21:29:58.807Z,21.00
2018-07-02T21:32:27.486Z,20.90
2018-07-02T21:34:56.171Z,20.80
2018-07-02T21:37:24.696Z,20.80
2018-07-02T21:39:53.423Z,20.80
2018-07-02T21:42:22.212Z,20.80
2018-07-02T21:44:50.802Z,20.80
2018-07-02T21:47:19.391Z,20.80
2018-07-02T21:49:47.995Z,20.80
2018-07-02T21:52:16.760Z,20.70
2018-07-02T21:54:45.678Z,20.70
2018-07-02T21:57:14.512Z,20.60
2018-07-02T21:59:43.288Z,20.60
2018-07-02T22:02:11.928Z,20.50
2018-07-02T22:04:40.482Z,20.50
2018-07-02T22:07:09.258Z,20.50
2018-07-02T22:09:38.973Z,20.50
2018-07-02T22:12:08.213Z,20.40
2018-07-02T22:14:39.892Z,20.40
2018-07-02T22:17:08.811Z,20.30
2018-07-02T22:19:37.873Z,20.30
2018-07-02T22:22:06.652Z,20.30
2018-07-02T22:24:35.415Z,20.20
2018-07-02T22:27:04.071Z,20.20
2018-07-02T22:29:32.847Z,20.20
2018-07-02T22:32:01.668Z,20.10
2018-07-02T22:34:30.460Z,20.10
2018-07-02T22:36:59.195Z,20.10
2018-07-02T22:39:32.232Z,20.00
2018-07-02T22:42:00.848Z,19.90
2018-07-02T22:44:29.443Z,19.80
2018-07-02T22:46:58.817Z,19.70
2018-07-02T22:49:27.596Z,19.50
2018-07-02T22:51:56.245Z,19.30
2018-07-02T22:54:25.455Z,19.20
2018-07-02T22:56:56.070Z,19.10
2018-07-02T22:59:25.010Z,19.00
2018-07-02T23:01:55.776Z,19.00
2018-07-02T23:04:25.441Z,18.80
2018-07-02T23:06:54.083Z,18.70
2018-07-02T23:09:22.636Z,18.70
2018-07-02T23:11:51.186Z,18.70
2018-07-02T23:14:19.747Z,18.70
2018-07-02T23:16:48.902Z,18.80
2018-07-02T23:19:17.515Z,18.80
2018-07-02T23:21:48.159Z,18.90
2018-07-02T23:24:20.914Z,19.00
2018-07-02T23:26:51.483Z,19.00
2018-07-02T23:29:20.386Z,18.90
2018-07-02T23:31:48.853Z,18.80
2018-07-02T23:34:17.344Z,18.70
2018-07-02T23:36:45.859Z,18.60
2018-07-02T23:39:14.533Z,18.60
2018-07-02T23:41:44.013Z,18.50
2018-07-02T23:44:12.511Z,18.40
2018-07-02T23:46:41.083Z,18.40
2018-07-02T23:49:09.624Z,18.30
2018-07-02T23:51:38.180Z,18.30
2018-07-02T23:54:06.735Z,18.20
2018-07-02T23:56:35.259Z,18.20
2018-07-02T23:59:03.988Z,18.10
